Time;durP1;ratioP1;P1;durP2;ratioP2;P2;SDS_P1;SDS_P2;PMS_P1;PMS_P2;Temp;Humidity;BMP_temperature;BMP_pressure;BME280_temperature;BME280_humidity;BME280_pressure;Samples;Min_cycle;Max_cycle;Signal;HPM_P1;HPM_P2
2021/08/07 00:00:42;;;;;;;2.10;1.55;;;16.20;90.00;;;;;;5006048;28;20380;-66
2021/08/07 00:03:08;;;;;;;3.55;1.50;;;16.20;90.00;;;;;;5002387;28;20038;-66
2021/08/07 00:05:34;;;;;;;3.88;1.30;;;16.20;90.00;;;;;;5004455;28;20047;-67
2021/08/07 00:07:59;;;;;;;3.28;1.58;;;16.20;90.00;;;;;;4995558;28;20084;-64
2021/08/07 00:10:25;;;;;;;3.67;1.67;;;16.20;90.00;;;;;;4993718;28;20038;-64
2021/08/07 00:12:51;;;;;;;3.05;1.80;;;16.20;90.00;;;;;;5002479;28;20029;-64
2021/08/07 00:15:16;;;;;;;5.78;1.60;;;16.10;90.00;;;;;;5013009;28;20026;-65
2021/08/07 00:17:42;;;;;;;2.92;1.75;;;16.10;90.00;;;;;;4991409;28;20033;-67
2021/08/07 00:20:08;;;;;;;4.68;1.63;;;16.10;90.00;;;;;;5012568;28;20067;-64
2021/08/07 00:22:35;;;;;;;1.58;1.35;;;16.00;90.10;;;;;;4995793;28;20461;-67
2021/08/07 00:25:01;;;;;;;1.55;1.27;;;16.10;90.10;;;;;;4998873;28;20034;-65
2021/08/07 00:27:27;;;;;;;3.00;1.50;;;16.00;90.20;;;;;;5008129;28;20498;-65
2021/08/07 00:29:52;;;;;;;3.45;1.58;;;16.00;90.10;;;;;;4993724;28;20031;-64
2021/08/07 00:32:18;;;;;;;3.78;1.35;;;15.90;90.10;;;;;;4995378;28;20018;-64
2021/08/07 00:34:43;;;;;;;2.25;1.20;;;15.90;90.10;;;;;;4999095;28;20471;-65
2021/08/07 00:37:09;;;;;;;1.90;1.60;;;15.90;90.20;;;;;;4993560;28;20352;-66
2021/08/07 00:39:35;;;;;;;3.88;1.55;;;15.90;90.20;;;;;;5005290;28;20042;-65
2021/08/07 00:42:01;;;;;;;3.58;1.35;;;15.80;90.20;;;;;;4993358;28;20682;-64
2021/08/07 00:44:26;;;;;;;1.52;1.10;;;15.80;90.20;;;;;;4996673;28;20034;-65
2021/08/07 00:46:52;;;;;;;5.15;1.50;;;15.80;90.20;;;;;;5012471;28;20030;-64
2021/08/07 00:49:18;;;;;;;3.60;1.40;;;15.80;90.50;;;;;;4994485;28;20030;-64
2021/08/07 00:51:45;;;;;;;1.55;1.20;;;15.70;90.20;;;;;;5001968;28;20428;-65
2021/08/07 00:54:12;;;;;;;1.67;1.20;;;15.60;90.30;;;;;;5006091;28;20444;-65
2021/08/07 00:56:37;;;;;;;2.33;1.13;;;15.60;90.30;;;;;;5002590;28;20051;-66
2021/08/07 00:59:03;;;;;;;3.45;1.17;;;15.60;90.30;;;;;;5004744;28;20502;-68
2021/08/07 01:01:36;;;;;;;1.40;1.30;;;15.60;90.30;;;;;;4999493;28;20037;-64
2021/08/07 01:04:07;;;;;;;2.75;1.38;;;15.50;90.40;;;;;;5004255;28;20026;-66
2021/08/07 01:06:54;;;;;;;1.20;1.00;;;15.50;90.40;;;;;;5000577;28;20375;-64
2021/08/07 01:09:55;;;;;;;2.83;1.42;;;15.50;90.40;;;;;;4991193;28;20029;-66
2021/08/07 01:12:30;;;;;;;3.60;1.35;;;15.40;90.50;;;;;;4967651;28;20022;-65
2021/08/07 01:14:58;;;;;;;2.05;1.20;;;15.40;90.40;;;;;;4979169;28;20482;-65
2021/08/07 01:17:27;;;;;;;2.20;1.35;;;15.40;90.40;;;;;;4996036;28;20070;-68
2021/08/07 01:20:13;;;;;;;1.38;1.27;;;15.40;90.40;;;;;;4975610;28;20050;-65
2021/08/07 01:23:13;;;;;;;1.20;1.10;;;15.40;90.40;;;;;;5003507;28;20059;-65
2021/08/07 01:25:46;;;;;;;1.95;1.17;;;15.40;90.50;;;;;;4998083;28;20037;-65
2021/08/07 01:28:12;;;;;;;3.03;1.30;;;15.40;90.50;;;;;;4985681;28;20030;-65
2021/08/07 01:30:38;;;;;;;5.60;1.42;;;15.30;90.40;;;;;;4992499;28;20084;-68
2021/08/07 01:33:04;;;;;;;1.52;1.30;;;15.30;90.40;;;;;;4995440;28;20018;-65
2021/08/07 01:35:30;;;;;;;1.55;1.30;;;15.20;90.40;;;;;;4982276;28;20039;-67
2021/08/07 01:37:56;;;;;;;2.95;1.75;;;15.20;90.50;;;;;;4997806;28;20033;-65
2021/08/07 01:40:21;;;;;;;1.70;1.20;;;15.30;90.60;;;;;;4994011;28;20379;-65
2021/08/07 01:42:47;;;;;;;1.30;1.10;;;15.30;90.60;;;;;;4994282;28;20034;-65
2021/08/07 01:45:12;;;;;;;1.42;1.33;;;15.30;90.60;;;;;;4992277;28;20066;-69
2021/08/07 01:48:14;;;;;;;2.83;1.40;;;15.30;90.60;;;;;;4994680;28;20030;-65
2021/08/07 01:50:58;;;;;;;1.35;1.25;;;15.30;90.70;;;;;;4998459;28;20041;-65
2021/08/07 01:53:27;;;;;;;1.88;1.15;;;15.30;90.70;;;;;;5005684;28;20034;-65
2021/08/07 01:56:03;;;;;;;1.92;1.33;;;15.30;90.70;;;;;;4996086;28;20490;-66
2021/08/07 01:58:32;;;;;;;2.25;1.27;;;15.30;90.80;;;;;;4993405;28;20079;-67
2021/08/07 02:01:00;;;;;;;1.05;0.95;;;15.20;90.70;;;;;;4977360;28;20030;-65
2021/08/07 02:03:28;;;;;;;1.50;1.00;;;15.30;90.80;;;;;;5011973;28;20450;-65
2021/08/07 02:05:54;;;;;;;3.47;1.30;;;15.20;90.80;;;;;;4993508;28;20085;-66
2021/08/07 02:08:20;;;;;;;1.88;1.00;;;15.30;90.90;;;;;;4980114;28;20501;-66
2021/08/07 02:10:48;;;;;;;1.20;1.10;;;15.30;90.90;;;;;;4977870;28;20034;-66
2021/08/07 02:13:17;;;;;;;1.40;1.30;;;15.30;90.90;;;;;;4995972;28;20446;-66
2021/08/07 02:15:45;;;;;;;1.92;1.20;;;15.30;90.90;;;;;;4993754;28;20030;-65
2021/08/07 02:18:12;;;;;;;1.25;1.15;;;15.20;90.80;;;;;;4974241;28;20038;-64
2021/08/07 02:20:43;;;;;;;2.55;1.20;;;15.20;90.90;;;;;;4998420;28;20445;-65
2021/08/07 02:23:12;;;;;;;3.70;1.10;;;15.20;90.90;;;;;;4995288;28;20029;-65
2021/08/07 02:25:38;;;;;;;1.92;1.40;;;15.20;90.90;;;;;;5000721;28;20033;-68
2021/08/07 02:28:04;;;;;;;1.73;1.08;;;15.20;91.00;;;;;;4987656;28;20030;-65
2021/08/07 02:30:29;;;;;;;1.55;1.00;;;15.20;91.00;;;;;;4984810;28;20087;-64
2021/08/07 02:32:56;;;;;;;1.75;1.15;;;15.20;91.00;;;;;;4972510;28;20026;-65
2021/08/07 02:35:23;;;;;;;1.13;1.02;;;15.20;91.00;;;;;;4990351;28;20030;-68
2021/08/07 02:37:49;;;;;;;1.63;1.15;;;15.20;91.00;;;;;;4990858;28;20152;-65
2021/08/07 02:40:15;;;;;;;3.70;1.20;;;15.20;91.00;;;;;;4991315;28;20109;-65
2021/08/07 02:42:42;;;;;;;1.73;1.40;;;15.20;91.10;;;;;;4978739;28;20113;-65
2021/08/07 02:45:08;;;;;;;4.15;1.50;;;15.20;91.10;;;;;;4990665;28;20164;-65
2021/08/07 02:47:35;;;;;;;2.40;1.27;;;15.20;91.10;;;;;;4994242;28;20149;-68
2021/08/07 02:50:02;;;;;;;4.72;1.33;;;15.20;91.00;;;;;;4991871;28;20097;-67
2021/08/07 02:52:28;;;;;;;1.55;1.13;;;15.10;91.00;;;;;;5001279;28;20180;-64
2021/08/07 02:54:54;;;;;;;3.83;1.30;;;15.10;91.00;;;;;;4996385;28;20506;-64
2021/08/07 02:57:20;;;;;;;2.13;1.10;;;15.10;91.10;;;;;;5010059;28;20055;-65
2021/08/07 02:59:46;;;;;;;2.15;1.30;;;15.10;91.10;;;;;;5005241;28;20030;-64
2021/08/07 03:02:11;;;;;;;1.45;1.30;;;15.10;91.20;;;;;;4996639;28;20041;-65
2021/08/07 03:04:37;;;;;;;1.35;1.25;;;15.10;91.10;;;;;;4996205;28;20041;-64
2021/08/07 03:07:03;;;;;;;3.75;1.20;;;15.10;91.20;;;;;;4983274;28;20045;-68
2021/08/07 03:09:28;;;;;;;2.47;1.25;;;15.10;91.20;;;;;;4991368;28;20069;-64
2021/08/07 03:11:54;;;;;;;4.32;1.20;;;15.10;91.10;;;;;;4997584;28;20038;-64
2021/08/07 03:14:20;;;;;;;1.98;1.10;;;15.10;91.10;;;;;;4995528;28;20096;-64
2021/08/07 03:16:45;;;;;;;2.22;1.33;;;15.10;91.10;;;;;;4998606;28;20398;-65
2021/08/07 03:19:11;;;;;;;1.77;1.60;;;15.10;91.10;;;;;;4981763;28;20043;-69
2021/08/07 03:21:36;;;;;;;3.38;1.70;;;15.10;91.40;;;;;;4972642;28;20387;-64
2021/08/07 03:24:02;;;;;;;2.70;1.25;;;15.00;91.10;;;;;;4998019;28;20047;-65
2021/08/07 03:26:28;;;;;;;4.65;1.23;;;15.00;91.20;;;;;;5002369;28;20023;-66
2021/08/07 03:28:53;;;;;;;1.70;1.60;;;14.90;91.20;;;;;;4991882;28;20018;-68
2021/08/07 03:31:19;;;;;;;3.38;1.60;;;14.90;91.40;;;;;;5000152;28;20033;-65
2021/08/07 03:33:45;;;;;;;1.95;1.60;;;14.90;91.50;;;;;;4982622;28;20093;-65
2021/08/07 03:36:11;;;;;;;3.35;1.60;;;14.90;91.30;;;;;;4990976;28;20536;-65
2021/08/07 03:38:36;;;;;;;1.80;1.70;;;14.80;91.30;;;;;;4994506;28;20367;-65
2021/08/07 03:41:02;;;;;;;4.35;1.30;;;14.80;91.30;;;;;;4983114;28;20018;-67
2021/08/07 03:43:28;;;;;;;3.85;1.58;;;14.70;91.30;;;;;;4991648;28;20162;-66
2021/08/07 03:45:54;;;;;;;4.30;1.77;;;14.70;91.30;;;;;;4995889;28;20030;-68
2021/08/07 03:48:19;;;;;;;5.88;1.77;;;14.70;91.30;;;;;;4991104;28;20027;-65
2021/08/07 03:50:45;;;;;;;3.80;1.73;;;14.60;91.30;;;;;;4993610;28;20029;-66
2021/08/07 03:53:11;;;;;;;2.47;2.13;;;14.60;91.40;;;;;;5000584;28;20047;-65
2021/08/07 03:55:37;;;;;;;4.93;1.65;;;14.60;91.40;;;;;;5042333;23;20506;-67
2021/08/07 03:58:03;;;;;;;2.03;1.52;;;14.50;91.40;;;;;;4958002;28;20035;-70
2021/08/07 04:00:33;;;;;;;5.93;1.38;;;14.50;91.40;;;;;;4965755;28;20501;-67
2021/08/07 04:02:59;;;;;;;4.72;1.80;;;14.50;91.50;;;;;;4964982;28;20031;-67
2021/08/07 04:05:25;;;;;;;4.35;1.40;;;14.50;91.50;;;;;;4953413;28;20043;-67
2021/08/07 04:07:51;;;;;;;3.92;1.30;;;14.50;91.50;;;;;;4951402;28;20106;-67
2021/08/07 04:10:18;;;;;;;3.40;1.77;;;14.50;91.50;;;;;;4954603;28;20031;-67
2021/08/07 04:12:44;;;;;;;3.70;1.50;;;14.50;91.60;;;;;;4954867;28;20365;-67
2021/08/07 04:15:11;;;;;;;3.17;1.70;;;14.50;91.60;;;;;;4953810;28;20039;-67
2021/08/07 04:17:38;;;;;;;2.75;1.50;;;14.50;91.60;;;;;;4954676;28;20027;-69
2021/08/07 04:20:06;;;;;;;1.85;1.70;;;14.60;91.60;;;;;;4955432;28;20023;-67
2021/08/07 04:22:32;;;;;;;1.55;1.45;;;14.60;91.60;;;;;;4950450;28;20475;-67
2021/08/07 04:24:58;;;;;;;1.98;1.30;;;14.60;91.60;;;;;;4960781;28;20062;-68
2021/08/07 04:27:24;;;;;;;4.95;2.00;;;14.60;91.50;;;;;;4947605;28;20456;-70
2021/08/07 04:29:49;;;;;;;1.80;1.70;;;14.60;91.60;;;;;;4953364;28;20062;-67
2021/08/07 04:32:16;;;;;;;4.32;1.90;;;14.60;91.60;;;;;;4948635;29;20107;-67
2021/08/07 04:34:42;;;;;;;2.58;1.60;;;14.60;91.60;;;;;;4940693;29;20042;-71
2021/08/07 04:37:07;;;;;;;1.60;1.45;;;14.60;91.70;;;;;;4954273;28;20023;-67
2021/08/07 04:39:33;;;;;;;1.98;1.70;;;14.60;91.70;;;;;;4960218;28;20411;-70
2021/08/07 04:41:59;;;;;;;1.65;1.55;;;14.60;91.70;;;;;;4964064;28;20158;-70
2021/08/07 04:44:24;;;;;;;2.47;1.65;;;14.60;91.70;;;;;;4955306;28;20122;-67
2021/08/07 04:46:50;;;;;;;1.77;1.33;;;14.60;91.70;;;;;;4940431;28;20038;-68
2021/08/07 04:49:15;;;;;;;1.33;1.10;;;14.60;91.80;;;;;;4950865;28;20031;-67
2021/08/07 04:51:41;;;;;;;3.25;1.23;;;14.60;91.80;;;;;;4958961;28;20027;-68
2021/08/07 04:54:07;;;;;;;4.38;1.50;;;14.70;91.80;;;;;;4968127;28;20126;-68
2021/08/07 04:56:32;;;;;;;2.10;1.35;;;14.70;91.80;;;;;;4954043;28;20476;-68
2021/08/07 04:58:58;;;;;;;3.58;1.58;;;14.70;91.80;;;;;;4954458;29;20086;-68
2021/08/07 05:01:23;;;;;;;2.45;1.25;;;14.70;91.80;;;;;;4938360;29;20028;-67
2021/08/07 05:03:49;;;;;;;3.15;1.27;;;14.70;91.80;;;;;;4952446;29;20515;-68
2021/08/07 05:06:14;;;;;;;3.33;1.58;;;14.70;91.80;;;;;;4952822;28;20020;-68
2021/08/07 05:08:40;;;;;;;4.22;1.30;;;14.80;91.80;;;;;;4950041;28;20028;-68
2021/08/07 05:11:06;;;;;;;2.53;1.38;;;14.80;91.80;;;;;;4969306;28;20057;-68
2021/08/07 05:13:33;;;;;;;2.55;1.42;;;14.80;91.80;;;;;;4952341;28;20110;-68
2021/08/07 05:15:59;;;;;;;3.40;1.50;;;14.80;91.80;;;;;;4943433;28;20047;-68
2021/08/07 05:18:25;;;;;;;2.15;1.20;;;14.80;91.80;;;;;;4953432;29;20023;-68
2021/08/07 05:20:50;;;;;;;6.28;1.45;;;14.80;91.90;;;;;;4946445;29;20035;-67
2021/08/07 05:23:16;;;;;;;3.47;1.48;;;14.90;91.90;;;;;;4945923;29;20042;-67
2021/08/07 05:25:42;;;;;;;4.20;1.50;;;14.90;91.90;;;;;;4951957;28;20163;-69
2021/08/07 05:28:07;;;;;;;3.47;1.30;;;14.90;91.90;;;;;;4948946;28;20046;-68
2021/08/07 05:30:33;;;;;;;2.78;1.38;;;15.00;91.90;;;;;;4952617;29;20038;-68
2021/08/07 05:32:58;;;;;;;1.90;1.20;;;15.00;91.90;;;;;;4953819;28;20031;-67
2021/08/07 05:35:24;;;;;;;3.25;1.13;;;15.00;91.90;;;;;;4953095;28;20098;-68
2021/08/07 05:37:50;;;;;;;2.17;1.05;;;15.10;92.00;;;;;;4944350;29;20512;-69
2021/08/07 05:40:15;;;;;;;5.40;1.58;;;15.10;92.00;;;;;;4935975;29;20477;-68
2021/08/07 05:42:41;;;;;;;2.63;1.50;;;15.20;92.00;;;;;;4952313;28;20090;-68
2021/08/07 05:45:08;;;;;;;2.95;1.35;;;15.20;92.00;;;;;;4952048;28;20046;-68
2021/08/07 05:47:34;;;;;;;4.38;1.60;;;15.30;92.00;;;;;;4947869;28;20060;-68
2021/08/07 05:49:59;;;;;;;6.20;1.40;;;15.30;92.00;;;;;;4934973;29;20047;-68
2021/08/07 05:52:27;;;;;;;2.75;1.50;;;15.30;92.00;;;;;;4951979;29;20035;-67
2021/08/07 05:54:52;;;;;;;4.78;1.85;;;15.40;92.00;;;;;;4954410;28;20054;-68
2021/08/07 05:57:18;;;;;;;6.90;2.03;;;15.40;92.00;;;;;;4951461;28;20075;-68
2021/08/07 05:59:44;;;;;;;3.42;1.50;;;15.50;92.00;;;;;;4952815;28;20110;-68
2021/08/07 06:02:10;;;;;;;4.57;1.60;;;15.50;92.00;;;;;;4951708;28;20039;-67
2021/08/07 06:04:35;;;;;;;2.60;1.90;;;15.50;92.00;;;;;;4949427;28;20054;-67
2021/08/07 06:07:01;;;;;;;6.70;2.28;;;15.50;91.90;;;;;;4950402;28;20102;-68
2021/08/07 06:09:27;;;;;;;3.28;2.00;;;15.60;91.90;;;;;;4945207;29;20035;-68
2021/08/07 06:11:52;;;;;;;4.57;1.90;;;15.60;91.90;;;;;;4949575;29;20027;-68
2021/08/07 06:14:18;;;;;;;4.03;2.05;;;15.60;91.90;;;;;;4952864;28;20106;-68
2021/08/07 06:16:43;;;;;;;4.93;2.00;;;15.60;91.90;;;;;;4951608;28;20027;-67
2021/08/07 06:19:09;;;;;;;4.22;1.77;;;15.60;91.90;;;;;;4953210;28;20488;-68
2021/08/07 06:21:35;;;;;;;6.35;1.55;;;15.70;91.90;;;;;;4953137;28;20027;-68
2021/08/07 06:24:00;;;;;;;4.72;1.73;;;15.70;91.90;;;;;;4949476;28;20158;-69
2021/08/07 06:26:28;;;;;;;3.45;1.73;;;15.80;91.90;;;;;;4953251;28;20098;-68
2021/08/07 06:28:54;;;;;;;3.20;1.70;;;15.80;91.90;;;;;;4952176;28;20030;-68
2021/08/07 06:31:19;;;;;;;2.10;1.60;;;15.80;91.90;;;;;;4961328;28;20031;-69
2021/08/07 06:33:46;;;;;;;4.93;1.30;;;15.90;91.90;;;;;;4949225;28;20035;-69
2021/08/07 06:36:12;;;;;;;3.33;1.50;;;16.00;92.00;;;;;;4950626;28;20047;-69
2021/08/07 06:38:38;;;;;;;3.10;1.30;;;16.00;92.00;;;;;;4948116;28;20066;-69
2021/08/07 06:41:03;;;;;;;5.03;1.30;;;16.20;92.00;;;;;;4951942;28;20059;-69
2021/08/07 06:43:29;;;;;;;1.48;1.38;;;16.30;91.90;;;;;;4950858;28;20031;-68
2021/08/07 06:45:55;;;;;;;2.47;1.27;;;16.30;91.80;;;;;;4950157;29;20503;-69
2021/08/07 06:48:20;;;;;;;5.22;1.48;;;16.40;91.80;;;;;;4952636;28;20030;-68
2021/08/07 06:50:46;;;;;;;1.42;1.25;;;16.40;91.70;;;;;;4951823;29;20023;-69
2021/08/07 06:53:12;;;;;;;3.63;1.30;;;16.50;91.60;;;;;;4951825;29;20066;-69
2021/08/07 06:55:38;;;;;;;1.60;1.30;;;16.60;91.60;;;;;;4949420;28;20118;-69
2021/08/07 06:58:04;;;;;;;3.72;1.38;;;16.60;91.50;;;;;;4948449;28;20081;-69
2021/08/07 07:00:29;;;;;;;1.90;0.98;;;16.60;91.50;;;;;;4950460;28;20089;-69
2021/08/07 07:02:55;;;;;;;4.10;1.40;;;16.70;91.50;;;;;;4952859;29;20097;-68
2021/08/07 07:05:20;;;;;;;3.65;1.20;;;16.80;91.40;;;;;;4948085;28;20035;-69
2021/08/07 07:07:46;;;;;;;1.90;1.10;;;16.90;91.30;;;;;;4949178;28;20054;-69
2021/08/07 07:10:14;;;;;;;2.63;1.30;;;16.90;91.20;;;;;;4951195;28;20031;-69
2021/08/07 07:12:40;;;;;;;4.25;1.20;;;17.00;91.20;;;;;;4951529;28;20027;-69
2021/08/07 07:15:07;;;;;;;46.47;33.75;;;17.10;91.10;;;;;;4950964;28;20027;-69
2021/08/07 07:17:33;;;;;;;9.65;4.15;;;17.30;91.10;;;;;;4952461;28;20027;-69
2021/08/07 07:20:00;;;;;;;1.42;1.20;;;17.40;91.10;;;;;;4952501;29;20102;-68
2021/08/07 07:22:26;;;;;;;1.73;1.27;;;17.70;91.00;;;;;;4951449;29;20031;-68
2021/08/07 07:24:51;;;;;;;2.88;1.05;;;18.00;90.70;;;;;;4954332;28;20117;-68
2021/08/07 07:27:17;;;;;;;1.67;1.00;;;18.50;90.40;;;;;;4951254;28;20039;-69
2021/08/07 07:29:42;;;;;;;2.88;1.17;;;18.90;90.00;;;;;;4952905;29;20070;-69
2021/08/07 07:32:09;;;;;;;0.77;0.70;;;19.30;89.30;;;;;;4952767;28;20035;-69
2021/08/07 07:34:38;;;;;;;2.55;0.90;;;19.70;88.70;;;;;;4950768;28;20544;-68
2021/08/07 07:37:06;;;;;;;1.25;0.95;;;20.20;87.90;;;;;;4948800;29;20027;-68
2021/08/07 07:39:32;;;;;;;1.08;1.00;;;20.60;86.80;;;;;;4951370;28;20109;-69
2021/08/07 07:41:58;;;;;;;1.88;1.00;;;20.90;85.90;;;;;;4950618;29;20062;-68
2021/08/07 07:44:24;;;;;;;4.97;1.60;;;21.20;84.70;;;;;;4948050;28;20035;-69
2021/08/07 07:46:49;;;;;;;3.63;1.10;;;21.30;84.40;;;;;;4946092;29;20496;-69
2021/08/07 07:49:15;;;;;;;1.65;0.85;;;21.40;84.10;;;;;;4952309;28;20205;-69
2021/08/07 07:51:41;;;;;;;2.65;1.00;;;21.60;83.10;;;;;;4950155;28;20031;-69
2021/08/07 07:54:06;;;;;;;1.27;0.90;;;21.80;82.50;;;;;;4951760;28;20039;-68
2021/08/07 07:56:32;;;;;;;2.20;0.80;;;21.80;81.70;;;;;;4949646;28;20069;-69
2021/08/07 07:58:57;;;;;;;1.73;0.90;;;21.60;81.40;;;;;;4951139;29;20047;-70
2021/08/07 08:01:23;;;;;;;3.17;1.00;;;21.40;81.60;;;;;;4951283;28;20063;-70
2021/08/07 08:03:49;;;;;;;4.00;1.00;;;21.30;81.50;;;;;;4951776;28;20026;-69
2021/08/07 08:06:14;;;;;;;3.10;0.88;;;21.30;81.40;;;;;;4950595;29;20106;-70
2021/08/07 08:08:40;;;;;;;1.67;0.70;;;21.10;82.00;;;;;;4951667;28;20757;-69
2021/08/07 08:11:05;;;;;;;2.22;0.80;;;20.90;82.10;;;;;;4935789;29;20031;-69
2021/08/07 08:13:31;;;;;;;3.60;1.00;;;20.80;82.30;;;;;;4945050;29;20034;-69
2021/08/07 08:15:56;;;;;;;1.15;0.70;;;20.70;82.10;;;;;;4950717;29;20521;-68
2021/08/07 08:18:22;;;;;;;1.85;1.00;;;20.50;82.20;;;;;;4951472;29;20396;-69
2021/08/07 08:20:48;;;;;;;1.08;0.80;;;20.40;82.70;;;;;;4952923;28;20039;-70
2021/08/07 08:23:13;;;;;;;1.60;0.95;;;20.40;82.80;;;;;;4954684;28;20118;-69
2021/08/07 08:25:39;;;;;;;3.95;1.30;;;20.30;82.70;;;;;;4957891;28;20019;-68
2021/08/07 08:28:06;;;;;;;3.03;0.90;;;20.30;82.60;;;;;;4957785;28;20026;-68
2021/08/07 08:30:32;;;;;;;4.22;1.10;;;20.40;82.40;;;;;;4971409;28;20035;-69
2021/08/07 08:32:57;;;;;;;3.53;1.00;;;20.80;81.60;;;;;;4955860;28;20475;-70
2021/08/07 08:35:23;;;;;;;6.68;1.05;;;21.90;79.60;;;;;;4955168;28;20494;-70
2021/08/07 08:37:49;;;;;;;2.58;0.90;;;22.30;78.40;;;;;;4955203;28;20054;-69
2021/08/07 08:40:15;;;;;;;1.48;1.02;;;22.20;78.50;;;;;;4955079;28;20035;-70
2021/08/07 08:42:41;;;;;;;1.50;1.08;;;22.30;78.00;;;;;;4955618;28;20472;-69
2021/08/07 08:45:08;;;;;;;3.15;1.00;;;23.00;76.50;;;;;;4955279;28;20039;-69
2021/08/07 08:47:39;;;;;;;2.20;0.80;;;22.80;76.50;;;;;;4953511;28;20027;-69
2021/08/07 08:50:06;;;;;;;5.30;1.27;;;22.60;76.90;;;;;;4954980;28;20023;-69
2021/08/07 08:52:34;;;;;;;1.27;0.90;;;22.30;77.40;;;;;;4955767;28;20263;-69
2021/08/07 08:54:59;;;;;;;1.80;0.90;;;22.10;77.50;;;;;;4957656;28;20511;-70
2021/08/07 08:57:25;;;;;;;4.68;0.93;;;22.00;77.70;;;;;;4964737;28;20072;-69
2021/08/07 08:59:50;;;;;;;2.95;1.02;;;21.90;77.90;;;;;;4963397;28;20400;-69
2021/08/07 09:02:16;;;;;;;3.65;1.00;;;21.80;78.00;;;;;;4955537;28;20035;-69
2021/08/07 09:04:42;;;;;;;2.70;0.70;;;21.90;77.90;;;;;;4954443;28;20039;-68
2021/08/07 09:07:12;;;;;;;2.50;1.05;;;21.90;77.90;;;;;;4955193;28;20034;-70
2021/08/07 09:09:40;;;;;;;2.40;0.90;;;21.90;78.10;;;;;;4955308;28;20027;-68
2021/08/07 09:12:06;;;;;;;1.85;1.00;;;22.00;78.00;;;;;;4955171;28;20106;-69
2021/08/07 09:14:38;;;;;;;2.40;1.00;;;22.10;77.50;;;;;;4953371;28;20495;-68
2021/08/07 09:17:11;;;;;;;4.82;1.00;;;22.30;76.40;;;;;;4955120;28;20140;-69
2021/08/07 09:19:40;;;;;;;1.08;0.65;;;22.50;76.40;;;;;;4954766;28;20027;-70
2021/08/07 09:22:17;;;;;;;1.50;0.90;;;23.00;75.30;;;;;;4954942;28;20070;-69
2021/08/07 09:25:13;;;;;;;3.80;0.80;;;23.20;74.80;;;;;;4955378;28;20059;-68
2021/08/07 09:27:44;;;;;;;2.25;1.00;;;23.30;74.20;;;;;;4966179;28;20380;-69
2021/08/07 09:30:18;;;;;;;4.32;1.10;;;23.80;73.40;;;;;;4954420;28;20024;-69
2021/08/07 09:32:52;;;;;;;2.65;0.77;;;23.90;71.90;;;;;;4954927;29;20039;-69
2021/08/07 09:35:24;;;;;;;1.50;0.95;;;23.80;71.90;;;;;;4953126;28;20042;-69
2021/08/07 09:38:08;;;;;;;2.85;0.90;;;23.50;71.80;;;;;;4954626;28;20030;-69
2021/08/07 09:40:45;;;;;;;2.50;1.55;;;23.20;71.50;;;;;;4954447;28;20023;-68
2021/08/07 09:43:12;;;;;;;3.58;0.80;;;23.00;72.20;;;;;;4954741;29;20067;-69
2021/08/07 09:45:39;;;;;;;1.42;0.80;;;22.80;72.30;;;;;;4953528;28;20491;-68
2021/08/07 09:48:10;;;;;;;4.85;0.80;;;22.60;72.60;;;;;;4942649;28;20099;-69
2021/08/07 09:50:36;;;;;;;3.25;0.80;;;22.50;72.70;;;;;;4951670;29;20383;-69
2021/08/07 09:53:04;;;;;;;2.20;0.70;;;22.50;73.00;;;;;;4954232;28;20062;-70
2021/08/07 09:56:23;;;;;;;;;;;;;;;;;;;;;
2021/08/07 10:02:44;;;;;;;3.15;0.95;;;22.50;72.50;;;;;;4982466;28;20049;-91
2021/08/07 10:05:56;;;;;;;2.10;0.90;;;22.30;72.30;;;;;;4971512;28;20038;-89
2021/08/07 10:09:09;;;;;;;1.40;0.90;;;22.30;72.70;;;;;;4972368;28;20034;-90
2021/08/07 10:15:37;;;;;;;2.85;0.95;;;22.10;72.40;;;;;;4919788;28;20613;-91
2021/08/07 10:21:53;;;;;;;;;;;;;;;;;;;;;
2021/08/07 10:24:44;;;;;;;3.67;1.08;;;21.90;73.30;;;;;;4988919;28;20043;-89
2021/08/07 10:33:36;;;;;;;3.00;0.97;;;21.80;73.50;;;;;;4956378;28;20434;-89
2021/08/07 10:36:48;;;;;;;1.85;0.88;;;21.70;73.30;;;;;;4976835;28;20034;-88
2021/08/07 10:40:01;;;;;;;3.05;1.02;;;21.70;73.10;;;;;;4999863;28;20053;-88
2021/08/07 10:43:02;;;;;;;3.50;1.13;;;21.70;73.30;;;;;;4990162;28;20063;-87
2021/08/07 10:45:52;;;;;;;;;;;;;;;;;;;;;
2021/08/07 10:49:08;;;;;;;1.88;1.10;;;21.60;74.10;;;;;;4977037;28;20301;-89
2021/08/07 10:51:58;;;;;;;2.50;1.30;;;21.50;75.10;;;;;;4970716;28;20034;-87
2021/08/07 10:54:36;;;;;;;9.60;3.60;;;21.50;76.10;;;;;;4974102;28;20033;-88
2021/08/07 10:57:44;;;;;;;6.38;2.65;;;21.50;77.30;;;;;;4975278;28;20053;-87
2021/08/07 11:00:25;;;;;;;2.40;1.60;;;21.50;77.70;;;;;;4976022;28;20038;-88
2021/08/07 11:03:42;;;;;;;1.58;1.40;;;21.50;79.00;;;;;;4973938;28;20058;-88
2021/08/07 11:07:08;;;;;;;3.03;1.30;;;21.50;79.10;;;;;;4968531;28;20081;-87
2021/08/07 11:09:55;;;;;;;3.40;1.40;;;21.30;78.90;;;;;;4882454;28;20047;-87
2021/08/07 11:12:44;;;;;;;4.07;1.30;;;21.30;79.30;;;;;;4970990;28;20030;-88
2021/08/07 11:15:50;;;;;;;7.93;2.85;;;21.30;80.50;;;;;;4965809;28;20053;-85
2021/08/07 11:18:28;;;;;;;9.88;4.93;;;21.20;80.30;;;;;;4974847;28;20065;-87
2021/08/07 11:20:59;;;;;;;13.38;8.15;;;21.20;80.20;;;;;;4985008;28;20030;-86
2021/08/07 11:26:52;;;;;;;5.75;1.60;;;21.00;81.20;;;;;;4997881;28;20301;-88
2021/08/07 11:29:23;;;;;;;3.35;1.75;;;20.90;81.40;;;;;;4993385;28;20029;-86
2021/08/07 11:32:18;;;;;;;3.25;1.70;;;20.80;82.00;;;;;;4974338;28;20029;-88
2021/08/07 11:34:47;;;;;;;3.45;1.52;;;20.80;82.80;;;;;;4972496;28;20514;-87
2021/08/07 11:37:15;;;;;;;2.20;1.55;;;20.80;83.40;;;;;;4974212;28;20057;-86
2021/08/07 11:40:15;;;;;;;2.67;1.52;;;20.70;83.10;;;;;;4972455;28;20026;-87
2021/08/07 11:43:03;;;;;;;4.00;1.45;;;20.60;83.70;;;;;;4957125;28;20045;-87
2021/08/07 11:46:02;;;;;;;;;;;;;;;;;;;;;
2021/08/07 11:48:45;;;;;;;4.25;1.30;;;20.40;83.70;;;;;;4946476;28;20043;-87
2021/08/07 11:51:30;;;;;;;4.68;1.40;;;20.30;84.20;;;;;;4988451;28;20495;-87
2021/08/07 11:54:50;;;;;;;4.45;1.55;;;20.20;84.60;;;;;;4968538;28;20044;-87
2021/08/07 12:01:09;;;;;;;4.55;1.30;;;19.80;85.70;;;;;;4976561;28;20502;-87
2021/08/07 12:04:32;;;;;;;4.78;1.80;;;19.70;86.30;;;;;;4974125;28;20046;-87
2021/08/07 12:07:35;;;;;;;5.57;1.77;;;19.60;86.20;;;;;;4921525;29;20115;-87
2021/08/07 12:10:48;;;;;;;6.50;1.90;;;19.50;86.50;;;;;;4864812;29;20490;-87
2021/08/07 12:16:35;;;;;;;3.47;1.70;;;19.20;86.30;;;;;;4933558;29;19910;-87
2021/08/07 12:19:11;;;;;;;4.40;2.10;;;19.00;87.30;;;;;;4934891;29;20581;-88
2021/08/07 12:22:05;;;;;;;7.45;2.40;;;19.00;87.80;;;;;;4950642;28;20042;-87
2021/08/07 12:24:34;;;;;;;5.97;2.22;;;18.90;88.70;;;;;;4960915;28;20030;-87
2021/08/07 12:27:13;;;;;;;4.68;2.70;;;18.80;89.00;;;;;;4993057;28;20022;-88
2021/08/07 12:30:17;;;;;;;4.35;2.40;;;18.80;89.70;;;;;;4985296;28;20054;-87
2021/08/07 12:32:42;;;;;;;8.38;2.78;;;18.90;90.20;;;;;;4976898;28;20026;-87
2021/08/07 12:35:43;;;;;;;5.00;2.35;;;18.90;90.30;;;;;;4975663;28;20486;-87
2021/08/07 12:38:25;;;;;;;3.90;2.50;;;18.90;90.10;;;;;;4994463;28;20487;-86
2021/08/07 12:41:03;;;;;;;3.00;2.17;;;18.80;90.30;;;;;;4976692;28;20490;-87
2021/08/07 12:43:33;;;;;;;4.53;2.60;;;18.80;90.40;;;;;;4976710;28;20037;-87
2021/08/07 12:46:08;;;;;;;3.38;2.17;;;18.80;90.50;;;;;;4976339;28;20081;-87
2021/08/07 12:48:56;;;;;;;3.97;2.40;;;18.90;90.60;;;;;;4976450;28;20050;-87
2021/08/07 12:51:30;;;;;;;3.58;2.13;;;18.80;90.90;;;;;;4975756;28;20033;-87
2021/08/07 12:53:59;;;;;;;3.13;1.95;;;18.80;90.70;;;;;;4977272;28;20019;-86
2021/08/07 12:56:27;;;;;;;4.18;2.17;;;18.80;90.70;;;;;;4984211;28;20030;-87
2021/08/07 12:59:03;;;;;;;6.20;2.15;;;18.60;90.70;;;;;;4974952;28;20093;-87
2021/08/07 13:01:30;;;;;;;5.85;2.10;;;18.60;91.00;;;;;;4993665;28;20486;-86
2021/08/07 13:03:59;;;;;;;4.47;2.20;;;18.60;91.00;;;;;;4976880;28;20169;-87
2021/08/07 13:06:26;;;;;;;5.10;2.10;;;18.50;91.00;;;;;;4975931;28;20026;-86
2021/08/07 13:08:52;;;;;;;6.28;2.08;;;18.50;91.20;;;;;;4993830;28;20489;-86
2021/08/07 13:11:21;;;;;;;4.32;2.53;;;18.50;91.20;;;;;;4976472;28;20382;-86
2021/08/07 13:13:55;;;;;;;2.90;2.10;;;18.50;91.40;;;;;;4977828;28;20031;-86
2021/08/07 13:16:44;;;;;;;4.63;2.33;;;18.50;91.60;;;;;;4999444;28;20031;-86
2021/08/07 13:19:30;;;;;;;3.38;2.05;;;18.50;91.70;;;;;;4993982;28;20082;-86
2021/08/07 13:22:09;;;;;;;2.53;1.63;;;18.50;91.50;;;;;;4982863;28;20030;-87
2021/08/07 13:24:37;;;;;;;2.40;1.95;;;18.50;91.60;;;;;;4975291;28;20022;-85
2021/08/07 13:27:06;;;;;;;4.35;1.73;;;18.40;91.40;;;;;;4975671;28;20098;-87
2021/08/07 13:29:31;;;;;;;4.93;1.98;;;18.40;91.40;;;;;;4975675;28;20033;-86
2021/08/07 13:31:58;;;;;;;2.38;1.83;;;18.30;91.30;;;;;;4993473;28;20422;-86
2021/08/07 13:34:27;;;;;;;3.90;1.67;;;18.20;91.50;;;;;;4976046;28;20022;-86
2021/08/07 13:36:54;;;;;;;5.03;1.90;;;18.10;91.60;;;;;;4993172;28;20041;-87
2021/08/07 13:39:23;;;;;;;6.28;1.92;;;18.10;91.70;;;;;;4973548;28;20038;-86